Time;durP1;ratioP1;P1;durP2;ratioP2;P2;SDS_P1;SDS_P2;PMS_P1;PMS_P2;Temp;Humidity;BMP_temperature;BMP_pressure;BME280_temperature;BME280_humidity;BME280_pressure;Samples;Min_cycle;Max_cycle;Signal;HPM_P1;HPM_P2
2023/01/22 00:01:18;;;;;;;7.75;4.30;;;5.10;99.90;;;;;;5034305;28;20217;-85
2023/01/22 00:03:53;;;;;;;4.82;4.03;;;5.10;99.90;;;;;;5033311;28;20248;-80
2023/01/22 00:06:22;;;;;;;5.20;3.95;;;5.10;99.90;;;;;;5033932;28;20224;-81
2023/01/22 00:08:49;;;;;;;5.43;3.88;;;5.20;99.90;;;;;;5031049;28;20218;-79
2023/01/22 00:11:19;;;;;;;6.05;5.10;;;5.20;99.90;;;;;;5033158;28;20249;-80
2023/01/22 00:13:46;;;;;;;5.38;4.07;;;5.20;99.90;;;;;;5033606;28;20217;-80
2023/01/22 00:16:17;;;;;;;7.10;5.05;;;5.20;99.90;;;;;;5032610;28;20240;-81
2023/01/22 00:18:44;;;;;;;7.25;4.50;;;5.10;99.90;;;;;;5024284;28;20283;-86
2023/01/22 00:21:12;;;;;;;5.38;3.60;;;5.10;99.90;;;;;;5033418;28;20533;-79
2023/01/22 00:23:39;;;;;;;5.65;4.10;;;5.10;99.90;;;;;;5030359;28;20221;-80
2023/01/22 00:26:09;;;;;;;5.15;4.40;;;5.10;99.90;;;;;;5030915;28;20237;-80
2023/01/22 00:28:37;;;;;;;6.38;4.18;;;5.10;99.90;;;;;;5030745;28;20611;-80
2023/01/22 00:31:05;;;;;;;5.78;4.32;;;5.10;99.90;;;;;;5031583;28;20226;-80
2023/01/22 00:33:34;;;;;;;6.68;4.60;;;5.10;99.90;;;;;;5021590;28;20872;-80
2023/01/22 00:36:05;;;;;;;4.70;3.85;;;5.00;99.90;;;;;;5032985;28;20255;-83
2023/01/22 00:38:33;;;;;;;6.85;4.75;;;5.00;99.90;;;;;;5032087;28;20221;-81
2023/01/22 00:41:01;;;;;;;6.60;4.95;;;5.00;99.90;;;;;;5021461;28;20237;-81
2023/01/22 00:43:29;;;;;;;9.70;4.65;;;5.00;99.90;;;;;;5019073;28;20222;-78
2023/01/22 00:45:57;;;;;;;4.03;3.58;;;5.00;99.90;;;;;;5012854;28;20225;-81
2023/01/22 00:48:24;;;;;;;11.82;5.10;;;5.00;99.90;;;;;;5013011;28;20313;-78
2023/01/22 00:50:52;;;;;;;6.80;4.65;;;4.90;99.90;;;;;;5013747;28;20242;-80
2023/01/22 00:53:19;;;;;;;4.68;4.18;;;5.00;99.90;;;;;;5014589;28;20561;-79
2023/01/22 00:55:55;;;;;;;6.38;4.35;;;5.00;99.90;;;;;;5014770;28;20225;-78
2023/01/22 00:58:22;;;;;;;6.57;4.35;;;5.00;99.90;;;;;;5015225;28;20252;-83
2023/01/22 01:00:50;;;;;;;7.47;4.93;;;5.00;99.90;;;;;;5013008;28;20576;-79
2023/01/22 01:03:26;;;;;;;7.60;4.35;;;5.00;99.90;;;;;;5014666;28;20709;-82
2023/01/22 01:05:57;;;;;;;4.93;4.45;;;5.00;99.90;;;;;;5013737;28;20312;-79
2023/01/22 01:08:24;;;;;;;5.95;4.82;;;5.10;99.90;;;;;;5013517;28;20257;-79
2023/01/22 01:10:54;;;;;;;7.40;4.30;;;5.00;99.90;;;;;;5012717;28;20237;-82
2023/01/22 01:13:23;;;;;;;7.13;4.57;;;5.00;99.90;;;;;;5012522;28;20588;-81
2023/01/22 01:15:50;;;;;;;5.45;4.40;;;5.00;99.90;;;;;;5014133;28;20229;-83
2023/01/22 01:18:19;;;;;;;8.38;5.18;;;5.00;99.90;;;;;;5014151;28;20225;-83
2023/01/22 01:20:53;;;;;;;6.13;4.00;;;5.00;99.90;;;;;;5012453;28;20252;-79
2023/01/22 01:23:21;;;;;;;8.02;4.75;;;5.00;99.90;;;;;;5012250;28;20225;-78
2023/01/22 01:25:48;;;;;;;4.85;3.85;;;5.00;99.90;;;;;;4914131;28;20548;-79
2023/01/22 01:28:15;;;;;;;4.90;4.50;;;5.00;99.90;;;;;;4913923;28;20237;-78
2023/01/22 01:30:42;;;;;;;5.95;5.35;;;5.10;99.90;;;;;;4914533;28;20291;-83
2023/01/22 01:33:10;;;;;;;9.10;4.80;;;5.10;99.90;;;;;;4914665;28;20253;-79
2023/01/22 01:35:39;;;;;;;4.88;3.95;;;5.00;99.90;;;;;;4917390;28;20308;-83
2023/01/22 01:38:09;;;;;;;5.32;4.15;;;5.10;99.90;;;;;;4926681;28;20236;-82
2023/01/22 01:40:46;;;;;;;4.82;4.40;;;5.10;99.90;;;;;;4927353;28;20241;-83
2023/01/22 01:43:21;;;;;;;4.50;4.07;;;5.10;99.90;;;;;;5046767;28;20231;-83
2023/01/22 01:45:48;;;;;;;5.13;4.28;;;5.10;99.90;;;;;;5252633;23;20225;-82
2023/01/22 01:48:28;;;;;;;5.07;4.53;;;5.10;99.90;;;;;;5073741;28;20274;-79
2023/01/22 01:51:01;;;;;;;7.03;4.68;;;5.10;99.90;;;;;;5049715;28;20702;-82
2023/01/22 01:53:29;;;;;;;4.57;3.80;;;5.10;99.90;;;;;;5050726;28;20239;-82
2023/01/22 01:55:59;;;;;;;6.07;3.80;;;5.10;99.90;;;;;;5037369;28;20610;-82
2023/01/22 01:58:29;;;;;;;4.78;4.07;;;5.10;99.90;;;;;;5031427;28;20567;-79
2023/01/22 02:01:00;;;;;;;4.57;3.85;;;5.10;99.90;;;;;;5029801;28;20236;-79
2023/01/22 02:03:29;;;;;;;5.28;4.20;;;5.10;99.90;;;;;;5031840;28;20256;-83
2023/01/22 02:05:57;;;;;;;5.47;3.83;;;5.10;99.90;;;;;;5031172;28;20221;-82
2023/01/22 02:08:25;;;;;;;7.72;3.90;;;5.10;99.90;;;;;;5033636;28;20229;-82
2023/01/22 02:10:54;;;;;;;3.88;3.30;;;5.10;99.90;;;;;;5032957;28;20251;-79
2023/01/22 02:13:29;;;;;;;4.22;3.45;;;5.10;99.90;;;;;;5051223;28;20289;-80
2023/01/22 02:15:56;;;;;;;4.50;4.05;;;5.10;99.90;;;;;;5041277;28;20262;-82
2023/01/22 02:18:23;;;;;;;9.07;4.20;;;5.10;99.90;;;;;;5050161;28;20251;-79
2023/01/22 02:20:54;;;;;;;4.07;3.72;;;5.10;99.90;;;;;;5039866;28;20225;-79
2023/01/22 02:23:21;;;;;;;4.80;3.63;;;5.20;99.90;;;;;;5050380;28;20723;-79
2023/01/22 02:25:48;;;;;;;4.25;3.85;;;5.10;99.90;;;;;;5050765;28;20318;-81
2023/01/22 02:28:15;;;;;;;8.57;3.95;;;5.20;99.90;;;;;;5051087;28;20225;-80
2023/01/22 02:30:43;;;;;;;3.53;3.20;;;5.20;99.90;;;;;;5050247;28;20570;-80
2023/01/22 02:33:10;;;;;;;5.55;3.90;;;5.20;99.90;;;;;;5051407;28;20221;-80
2023/01/22 02:35:37;;;;;;;3.50;3.20;;;5.20;99.90;;;;;;5052337;28;20279;-79
2023/01/22 02:38:13;;;;;;;3.75;3.00;;;5.20;99.90;;;;;;5050029;28;20216;-80
2023/01/22 02:40:47;;;;;;;3.75;3.35;;;5.20;99.90;;;;;;5054974;28;20224;-81
2023/01/22 02:43:18;;;;;;;3.38;3.08;;;5.20;99.90;;;;;;5053577;28;20266;-80
2023/01/22 02:45:45;;;;;;;3.80;3.33;;;5.10;99.90;;;;;;5059844;28;20243;-82
2023/01/22 02:48:22;;;;;;;;;;;;;;;;;;;;;
2023/01/22 02:50:53;;;;;;;4.95;4.22;;;5.10;99.90;;;;;;5065966;28;20308;-82
2023/01/22 02:53:21;;;;;;;5.45;3.65;;;5.10;99.90;;;;;;5067506;28;20354;-81
2023/01/22 02:55:49;;;;;;;3.60;3.30;;;5.10;99.90;;;;;;5065025;28;20232;-81
2023/01/22 02:58:17;;;;;;;2.90;2.60;;;5.10;99.90;;;;;;5055335;28;20286;-81
2023/01/22 03:00:49;;;;;;;3.08;2.75;;;5.10;99.90;;;;;;5056464;28;20225;-83
2023/01/22 03:03:16;;;;;;;3.25;3.05;;;5.10;99.90;;;;;;5056833;28;20241;-80
2023/01/22 03:05:54;;;;;;;3.00;2.80;;;5.10;99.90;;;;;;5045171;28;20298;-82
2023/01/22 03:08:26;;;;;;;4.97;4.60;;;5.10;99.90;;;;;;5046074;28;20230;-80
2023/01/22 03:10:58;;;;;;;3.13;2.63;;;5.10;99.90;;;;;;5056654;28;20304;-81
2023/01/22 03:21:42;;;;;;;2.60;2.40;;;5.00;99.90;;;;;;5036017;28;20526;-81
2023/01/22 03:24:26;;;;;;;3.17;2.97;;;5.00;99.90;;;;;;5015512;28;20248;-80
2023/01/22 03:27:33;;;;;;;5.72;3.40;;;5.00;99.90;;;;;;5007334;28;20220;-81
2023/01/22 03:30:01;;;;;;;3.60;3.30;;;5.00;99.90;;;;;;5025370;28;20305;-81
2023/01/22 03:32:28;;;;;;;3.30;3.10;;;5.00;99.90;;;;;;5036589;28;20229;-81
2023/01/22 03:34:56;;;;;;;2.75;2.55;;;5.00;99.90;;;;;;5034420;28;20479;-81
2023/01/22 03:37:23;;;;;;;3.10;2.90;;;5.00;99.90;;;;;;5045625;28;20224;-83
2023/01/22 03:39:52;;;;;;;3.75;3.10;;;5.00;99.90;;;;;;5055451;28;20224;-81
2023/01/22 03:42:19;;;;;;;8.18;5.88;;;5.00;99.90;;;;;;5044020;28;20209;-81
2023/01/22 03:44:46;;;;;;;8.10;5.70;;;5.00;99.90;;;;;;5053256;28;20541;-84
2023/01/22 03:47:13;;;;;;;4.38;2.90;;;5.00;99.90;;;;;;5051827;28;20308;-84
2023/01/22 03:49:40;;;;;;;2.72;2.60;;;5.00;99.90;;;;;;5055734;28;20220;-83
2023/01/22 03:52:07;;;;;;;2.92;2.72;;;5.00;99.90;;;;;;5053260;28;20241;-81
2023/01/22 03:54:34;;;;;;;3.85;2.60;;;5.00;99.90;;;;;;5054129;28;20662;-80
2023/01/22 03:57:03;;;;;;;2.80;2.55;;;5.00;99.90;;;;;;5052633;28;20232;-83
2023/01/22 03:59:30;;;;;;;3.30;3.00;;;5.00;99.90;;;;;;5053456;28;20887;-81
2023/01/22 04:02:00;;;;;;;2.72;2.47;;;5.00;99.90;;;;;;5041595;28;20670;-80
2023/01/22 04:04:32;;;;;;;3.03;2.78;;;5.00;99.90;;;;;;5035665;28;20221;-84
2023/01/22 04:06:59;;;;;;;3.10;2.83;;;5.00;99.90;;;;;;5051363;28;20243;-80
2023/01/22 04:09:28;;;;;;;2.78;2.58;;;5.00;99.90;;;;;;5053850;28;20685;-84
2023/01/22 04:11:55;;;;;;;3.30;2.50;;;5.00;99.90;;;;;;5053530;28;20289;-84
2023/01/22 04:14:24;;;;;;;3.88;2.90;;;5.00;99.90;;;;;;5044731;28;20251;-82
2023/01/22 04:16:51;;;;;;;3.40;2.92;;;5.00;99.90;;;;;;5046823;28;20304;-83
2023/01/22 04:19:18;;;;;;;3.13;2.92;;;5.00;99.90;;;;;;5034409;28;20704;-82
2023/01/22 04:21:46;;;;;;;3.08;2.80;;;5.00;99.90;;;;;;5034601;28;20233;-82
2023/01/22 04:24:13;;;;;;;3.58;2.97;;;5.00;99.90;;;;;;5031262;28;20606;-84
2023/01/22 04:26:45;;;;;;;4.20;3.75;;;5.00;99.90;;;;;;5033727;28;20252;-81
2023/01/22 04:29:12;;;;;;;3.33;3.10;;;4.90;99.90;;;;;;5032524;28;20233;-82
2023/01/22 04:31:40;;;;;;;2.95;2.70;;;5.00;99.90;;;;;;5034377;28;20220;-82
2023/01/22 04:34:08;;;;;;;3.60;3.30;;;5.00;99.90;;;;;;5033495;28;20221;-82
2023/01/22 04:36:35;;;;;;;3.55;3.25;;;5.00;99.90;;;;;;5036480;28;20312;-80
2023/01/22 04:39:02;;;;;;;4.80;3.65;;;5.00;99.90;;;;;;5053775;28;20274;-82
2023/01/22 04:41:29;;;;;;;3.22;2.92;;;5.00;99.90;;;;;;5044000;28;20236;-80
2023/01/22 04:43:57;;;;;;;5.00;3.53;;;5.00;99.90;;;;;;5052914;28;20231;-80
2023/01/22 04:46:27;;;;;;;3.40;3.20;;;4.90;99.90;;;;;;5059228;28;20226;-81
2023/01/22 04:48:55;;;;;;;3.53;2.53;;;5.00;99.90;;;;;;5225853;23;20687;-81
2023/01/22 04:51:26;;;;;;;4.20;3.90;;;5.00;99.90;;;;;;5072370;28;20220;-82
2023/01/22 04:53:53;;;;;;;3.30;3.00;;;5.00;99.90;;;;;;5074655;28;20228;-79
2023/01/22 04:56:25;;;;;;;4.13;3.80;;;4.90;99.90;;;;;;5061278;28;20224;-79
2023/01/22 04:58:52;;;;;;;3.70;3.50;;;4.90;99.90;;;;;;5066811;28;20224;-80
2023/01/22 05:01:20;;;;;;;4.03;3.50;;;4.90;99.90;;;;;;5052794;28;20605;-79
2023/01/22 05:03:47;;;;;;;5.35;3.78;;;4.90;99.90;;;;;;5052929;28;20220;-81
2023/01/22 05:07:02;;;;;;;3.65;3.35;;;4.80;99.90;;;;;;5052374;28;20689;-81
2023/01/22 05:09:29;;;;;;;10.48;8.30;;;4.90;99.90;;;;;;5063606;28;20306;-81
2023/01/22 05:11:56;;;;;;;3.88;3.58;;;4.80;99.90;;;;;;5053371;28;20223;-83
2023/01/22 05:14:25;;;;;;;3.83;3.40;;;4.80;99.90;;;;;;5073403;28;20228;-79
2023/01/22 05:16:52;;;;;;;5.97;3.80;;;4.80;99.90;;;;;;5065412;28;20638;-81
2023/01/22 05:19:19;;;;;;;4.50;4.10;;;4.70;99.90;;;;;;5053973;28;20522;-81
2023/01/22 05:21:46;;;;;;;3.85;3.55;;;4.70;99.90;;;;;;5054167;28;20225;-82
2023/01/22 05:24:17;;;;;;;3.42;3.15;;;4.70;99.90;;;;;;5053051;28;20224;-82
2023/01/22 05:26:44;;;;;;;3.65;3.35;;;4.80;99.90;;;;;;5052678;28;20216;-80
2023/01/22 05:29:16;;;;;;;3.90;3.60;;;4.80;99.90;;;;;;5052371;28;20685;-79
2023/01/22 05:31:43;;;;;;;4.75;4.03;;;4.80;99.90;;;;;;5067087;28;20228;-79
2023/01/22 05:34:14;;;;;;;4.80;4.32;;;4.80;99.90;;;;;;5073655;28;20262;-81
2023/01/22 05:36:41;;;;;;;4.15;3.75;;;4.80;99.90;;;;;;5074833;28;20220;-81
2023/01/22 05:39:08;;;;;;;4.40;4.10;;;4.80;99.90;;;;;;5069821;28;20316;-79
2023/01/22 05:41:36;;;;;;;4.68;4.28;;;4.70;99.90;;;;;;5071805;28;20232;-81
2023/01/22 05:44:05;;;;;;;4.07;3.78;;;4.70;99.90;;;;;;5074031;28;20289;-79
2023/01/22 05:46:32;;;;;;;4.63;4.18;;;4.70;99.90;;;;;;5070489;28;20653;-81
2023/01/22 05:48:59;;;;;;;5.25;4.10;;;4.70;99.90;;;;;;5057331;28;20244;-78
2023/01/22 05:51:26;;;;;;;5.57;5.07;;;4.70;99.90;;;;;;5053501;28;20743;-78
2023/01/22 05:53:54;;;;;;;4.68;4.03;;;4.70;99.90;;;;;;5052657;28;20227;-78
2023/01/22 05:56:23;;;;;;;4.32;4.03;;;4.60;99.90;;;;;;5053413;28;20224;-81
2023/01/22 05:58:51;;;;;;;5.32;4.38;;;4.60;99.90;;;;;;5054396;28;20229;-81
2023/01/22 06:01:20;;;;;;;5.22;4.85;;;4.70;99.90;;;;;;5055065;28;20247;-80
2023/01/22 06:03:47;;;;;;;7.82;4.40;;;4.60;99.90;;;;;;5044462;28;20235;-81
2023/01/22 06:06:16;;;;;;;5.20;4.70;;;4.60;99.90;;;;;;5054220;28;20225;-78
2023/01/22 06:08:43;;;;;;;5.85;5.28;;;4.60;99.90;;;;;;5042039;28;20293;-78
2023/01/22 06:11:13;;;;;;;5.85;4.80;;;4.60;99.90;;;;;;5053044;28;20315;-78
2023/01/22 06:13:49;;;;;;;3.92;3.63;;;4.60;99.90;;;;;;5040969;28;20232;-79
2023/01/22 06:16:18;;;;;;;4.10;3.70;;;4.60;99.90;;;;;;5056467;28;20262;-79
2023/01/22 06:18:44;;;;;;;4.00;3.70;;;4.60;99.90;;;;;;5056719;28;20236;-80
2023/01/22 06:21:12;;;;;;;4.93;4.53;;;4.60;99.90;;;;;;5057429;28;20297;-82
2023/01/22 06:23:39;;;;;;;5.28;4.63;;;4.60;99.90;;;;;;5057989;28;20757;-82
2023/01/22 06:26:06;;;;;;;4.65;4.32;;;4.60;99.90;;;;;;5056296;28;20673;-81
2023/01/22 06:28:33;;;;;;;5.40;5.00;;;4.60;99.90;;;;;;5057392;28;20307;-81
2023/01/22 06:31:06;;;;;;;5.57;4.78;;;4.60;99.90;;;;;;5057494;28;20221;-79
2023/01/22 06:33:35;;;;;;;5.18;4.72;;;4.60;99.90;;;;;;5057501;28;20307;-82
2023/01/22 06:36:03;;;;;;;6.45;5.32;;;4.50;99.90;;;;;;5056182;28;20253;-81
2023/01/22 06:38:31;;;;;;;4.43;4.10;;;4.50;99.90;;;;;;5058873;28;20255;-79
2023/01/22 06:41:00;;;;;;;4.70;4.30;;;4.50;99.90;;;;;;5055140;28;20224;-79
2023/01/22 06:43:28;;;;;;;4.80;4.40;;;4.50;99.90;;;;;;5056935;28;20308;-79
2023/01/22 06:45:55;;;;;;;5.10;4.70;;;4.50;99.90;;;;;;5056350;28;20231;-79
2023/01/22 06:48:22;;;;;;;5.38;4.75;;;4.50;99.90;;;;;;5057451;28;20236;-81
2023/01/22 06:50:51;;;;;;;6.47;5.95;;;4.50;99.90;;;;;;5056821;28;20220;-79
2023/01/22 06:53:18;;;;;;;5.03;4.53;;;4.60;99.90;;;;;;5057441;28;20267;-79
2023/01/22 06:55:45;;;;;;;5.57;5.15;;;4.50;99.90;;;;;;5056832;28;20220;-80
2023/01/22 06:58:13;;;;;;;4.80;4.40;;;4.60;99.90;;;;;;5057308;28;20246;-81
2023/01/22 07:00:41;;;;;;;4.97;4.47;;;4.60;99.90;;;;;;5057017;28;20251;-81
2023/01/22 07:03:08;;;;;;;5.45;5.05;;;4.70;99.90;;;;;;5058040;28;20274;-78
2023/01/22 07:05:36;;;;;;;6.75;6.10;;;4.70;99.90;;;;;;5057837;28;20561;-79
2023/01/22 07:08:05;;;;;;;5.65;5.15;;;4.70;99.90;;;;;;5056902;28;20311;-82
2023/01/22 07:10:32;;;;;;;5.40;4.90;;;4.70;99.90;;;;;;5058674;28;20217;-83
2023/01/22 07:13:03;;;;;;;5.68;5.28;;;4.70;99.90;;;;;;5057253;28;20285;-81
2023/01/22 07:15:32;;;;;;;8.23;6.07;;;4.70;99.90;;;;;;5056897;28;20746;-81
2023/01/22 07:17:59;;;;;;;7.43;5.97;;;4.80;99.90;;;;;;5056023;28;20909;-79
2023/01/22 07:20:26;;;;;;;7.00;6.28;;;4.80;99.90;;;;;;5056687;28;20685;-81
2023/01/22 07:22:59;;;;;;;6.55;5.72;;;4.80;99.90;;;;;;5056961;28;20676;-80
2023/01/22 07:25:28;;;;;;;6.13;5.53;;;4.80;99.90;;;;;;5056426;28;20225;-79
2023/01/22 07:28:00;;;;;;;6.07;5.47;;;4.70;99.90;;;;;;5054925;28;20224;-79
2023/01/22 07:30:27;;;;;;;6.65;5.95;;;4.80;99.90;;;;;;5046744;28;20228;-82
2023/01/22 07:32:58;;;;;;;5.88;5.30;;;4.70;99.90;;;;;;5056762;28;20581;-82
2023/01/22 07:35:26;;;;;;;5.50;5.00;;;4.70;99.90;;;;;;5058566;28;20286;-81
2023/01/22 07:37:54;;;;;;;7.10;6.40;;;4.80;99.90;;;;;;5046278;28;20252;-79
2023/01/22 07:40:23;;;;;;;7.68;6.10;;;4.70;99.90;;;;;;5055164;28;20665;-81
2023/01/22 07:42:54;;;;;;;5.72;5.22;;;4.70;99.90;;;;;;5056596;28;20224;-79
2023/01/22 07:45:24;;;;;;;6.70;5.22;;;4.70;99.90;;;;;;5055708;28;20225;-81
2023/01/22 07:47:56;;;;;;;5.88;5.38;;;4.70;99.90;;;;;;5056623;28;20279;-79
2023/01/22 07:50:27;;;;;;;5.40;5.00;;;4.80;99.90;;;;;;5055384;28;20228;-81
2023/01/22 07:52:54;;;;;;;5.90;5.40;;;4.70;99.90;;;;;;5056111;28;20244;-79
2023/01/22 07:55:21;;;;;;;5.53;5.03;;;4.70;99.90;;;;;;5056106;28;20228;-81
2023/01/22 07:57:56;;;;;;;5.95;5.45;;;4.80;99.90;;;;;;5056372;28;20220;-81
2023/01/22 08:00:27;;;;;;;5.88;5.35;;;4.70;99.90;;;;;;5055695;28;20220;-81
2023/01/22 08:03:00;;;;;;;5.55;5.05;;;4.80;99.90;;;;;;5055401;28;20225;-82
2023/01/22 08:05:29;;;;;;;6.55;5.70;;;4.80;99.90;;;;;;5026239;28;20652;-81
2023/01/22 08:07:56;;;;;;;6.50;5.90;;;4.80;99.90;;;;;;5055998;28;20231;-81
2023/01/22 08:10:23;;;;;;;5.65;5.15;;;4.80;99.90;;;;;;5055286;28;20252;-82
2023/01/22 08:12:50;;;;;;;5.90;5.40;;;4.80;99.90;;;;;;5055965;28;20229;-82
2023/01/22 08:15:18;;;;;;;6.45;5.40;;;4.80;99.90;;;;;;5055132;28;20308;-81
2023/01/22 08:17:49;;;;;;;5.60;4.88;;;4.90;99.90;;;;;;5056041;28;20239;-82
2023/01/22 08:20:17;;;;;;;7.68;6.35;;;4.80;99.90;;;;;;5055174;28;20706;-81
2023/01/22 08:22:44;;;;;;;5.85;5.35;;;4.90;99.90;;;;;;5055618;28;20278;-79
2023/01/22 08:25:14;;;;;;;6.45;5.82;;;4.90;99.90;;;;;;5054983;28;20231;-78
2023/01/22 08:27:44;;;;;;;5.95;5.45;;;4.80;99.90;;;;;;5055075;28;20221;-78
2023/01/22 08:30:12;;;;;;;6.22;5.72;;;4.80;99.90;;;;;;5056007;28;20230;-82
2023/01/22 08:32:40;;;;;;;6.28;5.68;;;4.80;99.90;;;;;;5055592;28;20213;-81
2023/01/22 08:35:15;;;;;;;6.55;5.90;;;4.90;99.90;;;;;;5055505;28;20967;-80
2023/01/22 08:37:43;;;;;;;6.90;6.20;;;4.90;99.90;;;;;;5054754;28;20522;-82
2023/01/22 08:40:12;;;;;;;6.30;5.70;;;4.90;99.90;;;;;;5055770;28;20224;-82
2023/01/22 08:42:57;;;;;;;6.68;5.78;;;4.80;99.90;;;;;;5058283;28;20231;-79
2023/01/22 08:45:26;;;;;;;6.68;6.05;;;4.90;99.90;;;;;;5056380;28;20630;-82
2023/01/22 08:47:58;;;;;;;6.38;5.82;;;4.80;99.90;;;;;;5055499;28;20251;-82
2023/01/22 08:50:27;;;;;;;7.28;6.03;;;4.80;99.90;;;;;;5045254;28;20250;-79
2023/01/22 08:52:58;;;;;;;7.57;6.72;;;4.80;99.90;;;;;;5055388;28;20255;-81
2023/01/22 08:55:26;;;;;;;6.70;5.90;;;4.80;99.90;;;;;;5053992;28;20233;-80
2023/01/22 08:57:55;;;;;;;5.97;5.38;;;4.80;99.90;;;;;;5046610;28;20221;-78
2023/01/22 09:00:24;;;;;;;7.82;6.45;;;4.80;99.90;;;;;;5054751;28;20221;-78
2023/01/22 09:02:51;;;;;;;6.43;5.82;;;4.80;99.90;;;;;;5055335;28;20225;-78
2023/01/22 09:05:19;;;;;;;6.88;6.18;;;4.80;99.90;;;;;;5055250;28;20240;-78
2023/01/22 09:07:48;;;;;;;5.50;5.00;;;4.80;99.90;;;;;;5056549;28;20255;-81
2023/01/22 09:10:15;;;;;;;6.97;6.28;;;4.80;99.90;;;;;;5054536;28;20220;-78
2023/01/22 09:12:42;;;;;;;5.57;5.05;;;4.80;99.90;;;;;;5055416;28;20275;-78
2023/01/22 09:15:10;;;;;;;6.97;6.25;;;4.80;99.90;;;;;;5055285;28;20217;-81
2023/01/22 09:17:37;;;;;;;8.80;6.85;;;4.80;99.90;;;;;;5055817;28;20660;-81
2023/01/22 09:20:04;;;;;;;7.07;6.38;;;4.80;99.90;;;;;;5057323;28;20216;-81
2023/01/22 09:22:31;;;;;;;11.32;8.60;;;4.80;99.90;;;;;;5055656;28;20270;-78
2023/01/22 09:25:00;;;;;;;8.73;7.85;;;4.80;99.90;;;;;;5057957;28;20216;-81
2023/01/22 09:27:27;;;;;;;9.60;8.60;;;4.90;99.90;;;;;;5056803;28;20235;-78
2023/01/22 09:29:54;;;;;;;10.52;9.55;;;4.90;99.90;;;;;;5056834;28;20231;-81
2023/01/22 09:32:21;;;;;;;9.75;8.75;;;4.90;99.90;;;;;;5061860;28;20263;-79
2023/01/22 09:34:48;;;;;;;7.65;6.85;;;4.90;99.90;;;;;;5063356;28;20224;-81
2023/01/22 09:37:15;;;;;;;7.57;6.88;;;4.90;99.90;;;;;;5060604;28;20224;-78
2023/01/22 09:39:42;;;;;;;13.98;12.65;;;4.90;99.90;;;;;;5059957;28;20259;-81
2023/01/22 09:42:22;;;;;;;9.85;8.95;;;4.90;99.90;;;;;;5061385;28;20248;-81
2023/01/22 09:44:54;;;;;;;9.60;7.35;;;4.90;99.90;;;;;;5067452;28;20286;-79
2023/01/22 09:47:32;;;;;;;7.40;6.60;;;4.90;99.90;;;;;;5070865;28;20224;-82
2023/01/22 09:50:04;;;;;;;10.20;9.23;;;4.80;99.90;;;;;;5069175;28;20220;-82
2023/01/22 09:52:35;;;;;;;18.90;16.70;;;4.80;99.90;;;;;;5067846;28;20235;-79
2023/01/22 09:55:12;;;;;;;18.48;16.63;;;4.80;99.90;;;;;;5070679;28;20250;-79
2023/01/22 09:57:48;;;;;;;13.55;12.25;;;4.80;99.90;;;;;;5060470;28;20232;-80
2023/01/22 10:00:24;;;;;;;8.82;7.78;;;4.80;99.90;;;;;;5063896;28;20251;-78
2023/01/22 10:02:57;;;;;;;7.57;6.88;;;4.80;99.90;;;;;;5068981;28;20232;-79
2023/01/22 10:05:34;;;;;;;8.93;8.10;;;4.80;99.90;;;;;;5070659;28;20591;-81
2023/01/22 10:08:09;;;;;;;9.30;8.35;;;4.80;99.90;;;;;;5068052;28;20220;-78
2023/01/22 10:10:42;;;;;;;11.30;8.60;;;4.80;99.90;;;;;;5058384;28;20304;-79
2023/01/22 10:13:17;;;;;;;9.93;7.22;;;4.70;99.90;;;;;;5055726;28;20224;-79
2023/01/22 10:15:45;;;;;;;8.80;7.18;;;4.80;99.90;;;;;;5045259;28;20251;-81
2023/01/22 10:18:25;;;;;;;11.52;8.07;;;4.80;99.90;;;;;;5051520;28;20288;-80
2023/01/22 10:20:54;;;;;;;7.72;6.85;;;4.80;99.90;;;;;;5054099;28;20252;-81
2023/01/22 10:23:29;;;;;;;7.75;6.93;;;4.80;99.90;;;;;;5053560;28;20233;-80
2023/01/22 10:26:04;;;;;;;8.77;7.93;;;4.80;99.90;;;;;;5055543;28;20231;-79
2023/01/22 10:28:35;;;;;;;10.30;8.07;;;4.80;99.90;;;;;;5046592;28;20235;-81
2023/01/22 10:31:02;;;;;;;10.57;8.60;;;4.80;99.90;;;;;;5053720;28;20236;-79
2023/01/22 10:33:29;;;;;;;8.05;7.00;;;4.70;99.90;;;;;;5054667;28;20224;-81
2023/01/22 10:35:57;;;;;;;9.90;8.43;;;4.80;99.90;;;;;;5056492;28;20575;-81
2023/01/22 10:38:28;;;;;;;10.27;9.18;;;4.70;99.90;;;;;;5044886;28;20229;-78
2023/01/22 10:40:58;;;;;;;11.00;9.63;;;4.80;99.90;;;;;;5055761;28;20312;-78
2023/01/22 10:43:41;;;;;;;11.85;9.00;;;4.80;99.90;;;;;;5054453;28;20312;-81
2023/01/22 10:46:20;;;;;;;8.13;7.32;;;4.80;99.90;;;;;;5057849;28;20251;-82
2023/01/22 10:48:59;;;;;;;9.95;8.85;;;4.90;99.90;;;;;;5056229;28;20220;-81
2023/01/22 10:51:32;;;;;;;8.80;7.90;;;4.90;99.90;;;;;;5053842;28;20743;-79
2023/01/22 10:54:02;;;;;;;9.80;8.82;;;5.00;99.90;;;;;;5054580;28;20232;-81
2023/01/22 10:56:45;;;;;;;12.65;8.52;;;5.00;99.90;;;;;;5055102;28;20227;-83
2023/01/22 10:59:21;;;;;;;10.98;9.88;;;5.00;99.90;;;;;;5054338;28;20697;-81
2023/01/22 11:01:56;;;;;;;11.90;10.15;;;5.10;99.90;;;;;;5060257;28;20231;-80
2023/01/22 11:04:29;;;;;;;9.25;8.15;;;5.10;99.90;;;;;;5070741;28;20284;-81
2023/01/22 11:07:08;;;;;;;11.63;8.65;;;5.10;99.90;;;;;;5069815;28;20299;-79
2023/01/22 11:09:43;;;;;;;9.95;8.93;;;5.10;99.90;;;;;;5195236;23;20317;-78
2023/01/22 11:12:17;;;;;;;11.73;8.80;;;5.10;99.90;;;;;;5088066;28;20220;-82
2023/01/22 11:14:50;;;;;;;9.73;8.70;;;5.20;99.90;;;;;;5089855;28;20223;-82
2023/01/22 11:17:23;;;;;;;9.07;8.18;;;5.20;99.90;;;;;;5090167;28;20692;-82
2023/01/22 11:19:58;;;;;;;10.32;8.43;;;5.10;99.90;;;;;;5088044;28;20228;-81
2023/01/22 11:22:28;;;;;;;11.55;9.32;;;5.10;99.90;;;;;;5089155;28;20228;-80
2023/01/22 11:24:55;;;;;;;14.70;10.50;;;5.20;99.90;;;;;;5087340;28;20281;-82
2023/01/22 11:27:47;;;;;;;10.40;9.40;;;5.20;99.90;;;;;;5090380;28;20246;-79
2023/01/22 11:30:40;;;;;;;9.27;8.48;;;5.20;99.90;;;;;;5089172;28;20227;-79
2023/01/22 11:33:19;;;;;;;9.77;8.77;;;5.20;99.90;;;;;;5089168;28;20216;-79
2023/01/22 11:35:51;;;;;;;11.88;10.68;;;5.20;99.90;;;;;;5091534;28;20219;-80
2023/01/22 11:38:33;;;;;;;10.80;9.70;;;5.20;99.90;;;;;;5092118;28;20232;-79
2023/01/22 11:41:21;;;;;;;12.07;10.10;;;5.20;99.90;;;;;;5090421;28;20660;-80
2023/01/22 11:44:28;;;;;;;9.70;8.65;;;5.20;99.90;;;;;;5088209;28;20220;-79
2023/01/22 11:47:20;;;;;;;9.60;8.70;;;5.10;99.90;;;;;;5076210;28;20224;-82
2023/01/22 11:50:01;;;;;;;10.75;9.65;;;5.20;99.90;;;;;;5083287;28;20224;-79
2023/01/22 11:52:45;;;;;;;9.93;8.93;;;5.20;99.90;;;;;;5081778;28;20224;-81
2023/01/22 11:55:58;;;;;;;10.50;9.57;;;5.20;99.90;;;;;;5079187;28;20752;-79
2023/01/22 11:58:36;;;;;;;15.80;11.98;;;5.20;99.90;;;;;;5076866;28;20228;-79
2023/01/22 12:01:19;;;;;;;11.88;10.55;;;5.20;99.90;;;;;;5076523;28;20527;-79
2023/01/22 12:04:16;;;;;;;13.45;11.73;;;5.30;99.90;;;;;;5077785;28;20224;-79
2023/01/22 12:07:05;;;;;;;16.70;11.65;;;5.30;99.90;;;;;;5077549;28;20251;-81
2023/01/22 12:09:40;;;;;;;11.45;10.23;;;5.30;99.90;;;;;;5077447;28;20269;-81
2023/01/22 12:12:27;;;;;;;12.88;11.02;;;5.30;99.90;;;;;;5074695;28;20311;-81
2023/01/22 12:15:18;;;;;;;11.27;10.15;;;5.30;99.90;;;;;;5075843;28;20224;-81
2023/01/22 12:18:02;;;;;;;13.88;11.80;;;5.40;99.90;;;;;;5076242;28;20220;-79
2023/01/22 12:20:50;;;;;;;14.75;12.20;;;5.40;99.90;;;;;;5076132;28;20232;-79
2023/01/22 12:23:26;;;;;;;17.35;15.23;;;5.40;99.90;;;;;;5075771;28;20251;-81
2023/01/22 12:25:58;;;;;;;15.55;12.80;;;5.40;99.90;;;;;;5074866;28;20223;-79
2023/01/22 12:28:30;;;;;;;12.77;10.48;;;5.30;99.90;;;;;;5075096;28;20251;-78
2023/01/22 12:31:02;;;;;;;13.65;10.00;;;5.30;99.90;;;;;;5073804;28;20263;-81
2023/01/22 12:33:33;;;;;;;11.18;9.32;;;5.30;99.90;;;;;;5075106;28;20231;-81
2023/01/22 12:36:04;;;;;;;14.23;12.52;;;5.10;99.90;;;;;;5074940;28;20228;-81
2023/01/22 12:38:42;;;;;;;16.48;12.88;;;5.20;99.90;;;;;;5075218;28;20555;-81
2023/01/22 12:41:20;;;;;;;15.93;11.73;;;5.10;99.90;;;;;;5073933;28;20239;-79
2023/01/22 12:43:58;;;;;;;22.92;20.63;;;5.10;99.90;;;;;;5074817;28;20228;-82
2023/01/22 12:46:35;;;;;;;18.17;15.68;;;5.00;99.90;;;;;;5064737;28;20224;-78
2023/01/22 12:49:07;;;;;;;15.30;12.82;;;5.00;99.90;;;;;;5073654;28;20298;-81
2023/01/22 12:51:42;;;;;;;20.50;16.83;;;4.90;99.90;;;;;;5072986;28;20549;-78
2023/01/22 12:54:17;;;;;;;20.73;18.65;;;4.90;99.90;;;;;;5074285;28;20215;-81
2023/01/22 12:56:45;;;;;;;14.63;13.25;;;4.90;99.90;;;;;;5073664;28;20623;-81
2023/01/22 12:59:35;;;;;;;13.27;11.00;;;4.90;99.90;;;;;;5074172;28;20226;-81
2023/01/22 13:02:38;;;;;;;16.85;13.05;;;5.00;99.90;;;;;;5073779;28;20226;-81
2023/01/22 13:05:12;;;;;;;13.95;10.73;;;4.90;99.90;;;;;;5069613;28;20664;-78
2023/01/22 13:07:47;;;;;;;24.08;19.52;;;4.90;99.90;;;;;;5074136;28;20667;-82
2023/01/22 13:10:36;;;;;;;17.65;14.35;;;4.90;99.90;;;;;;5072795;28;20232;-79
2023/01/22 13:13:20;;;;;;;17.40;13.93;;;4.90;99.90;;;;;;5069793;28;20620;-79
2023/01/22 13:15:53;;;;;;;13.90;11.38;;;4.90;99.90;;;;;;5073511;28;20269;-79
2023/01/22 13:18:23;;;;;;;14.73;12.05;;;4.90;99.90;;;;;;5073319;28;20316;-82
2023/01/22 13:20:56;;;;;;;13.55;11.15;;;4.80;99.90;;;;;;5074579;28;20281;-81
2023/01/22 13:23:28;;;;;;;13.45;10.65;;;4.80;99.90;;;;;;5073300;28;20254;-79
2023/01/22 13:25:56;;;;;;;13.35;10.57;;;4.80;99.90;;;;;;5073568;28;20297;-82